createdAt,value
2018-03-30T00:02:18.027Z,60.90
2018-03-30T00:04:45.521Z,61.04
2018-03-30T00:07:12.966Z,61.49
2018-03-30T00:09:52.237Z,61.52
2018-03-30T00:12:19.659Z,62.06
2018-03-30T00:14:47.120Z,61.47
2018-03-30T00:17:14.545Z,60.87
2018-03-30T00:19:41.997Z,60.66
2018-03-30T00:22:09.450Z,60.28
2018-03-30T00:24:36.972Z,59.82
2018-03-30T00:27:04.544Z,59.84
2018-03-30T00:29:32.129Z,59.94
2018-03-30T00:31:59.723Z,60.02
2018-03-30T00:34:27.193Z,60.19
2018-03-30T00:36:54.622Z,60.06
2018-03-30T00:39:22.087Z,59.71
2018-03-30T00:41:49.544Z,60.04
2018-03-30T00:44:16.973Z,59.76
2018-03-30T00:46:44.420Z,61.24
2018-03-30T00:49:11.860Z,63.33
2018-03-30T00:51:39.313Z,63.11
2018-03-30T00:54:06.737Z,61.76
2018-03-30T00:56:34.191Z,63.00
2018-03-30T00:59:01.648Z,62.81
2018-03-30T01:01:29.097Z,61.44
2018-03-30T01:03:56.562Z,61.10
2018-03-30T01:06:24.348Z,60.95
2018-03-30T01:08:51.880Z,61.04
2018-03-30T01:11:19.321Z,61.28
2018-03-30T01:13:47.802Z,61.73
2018-03-30T01:16:15.336Z,61.16
2018-03-30T01:18:42.924Z,60.58
2018-03-30T01:21:10.518Z,60.07
2018-03-30T01:23:38.104Z,60.79
2018-03-30T01:26:05.812Z,61.31
2018-03-30T01:28:33.246Z,61.68
2018-03-30T01:31:00.723Z,61.99
2018-03-30T01:33:28.204Z,62.46
2018-03-30T01:35:55.718Z,62.15
2018-03-30T01:38:23.135Z,61.47
2018-03-30T01:40:50.601Z,61.17
2018-03-30T01:43:18.033Z,61.67
2018-03-30T01:45:45.454Z,61.37
2018-03-30T01:48:12.931Z,61.12
2018-03-30T01:50:40.358Z,60.59
2018-03-30T01:53:08.220Z,60.45
2018-03-30T01:55:35.638Z,60.36
2018-03-30T01:58:03.171Z,60.91
2018-03-30T02:00:30.628Z,60.75
2018-03-30T02:02:58.606Z,61.17
2018-03-30T02:05:26.047Z,61.48
2018-03-30T02:07:53.512Z,61.32
2018-03-30T02:10:21.462Z,61.26
2018-03-30T02:12:48.899Z,61.21
2018-03-30T02:15:16.468Z,60.66
2018-03-30T02:17:43.909Z,60.28
2018-03-30T02:20:11.759Z,60.52
2018-03-30T02:22:39.279Z,60.33
2018-03-30T02:25:06.748Z,60.67
2018-03-30T02:27:34.210Z,61.36
2018-03-30T02:30:01.671Z,61.39
2018-03-30T02:32:29.111Z,61.51
2018-03-30T02:34:57.457Z,61.08
2018-03-30T02:37:24.958Z,60.94
2018-03-30T02:39:52.428Z,61.02
2018-03-30T02:42:19.957Z,60.67
2018-03-30T02:44:47.430Z,60.38
2018-03-30T02:47:14.884Z,60.93
2018-03-30T02:49:43.294Z,60.83
2018-03-30T02:52:10.756Z,61.36
2018-03-30T02:54:38.185Z,61.33
2018-03-30T02:57:05.667Z,61.28
2018-03-30T02:59:33.162Z,61.62
2018-03-30T03:02:00.699Z,61.60
2018-03-30T03:04:28.154Z,61.78
2018-03-30T03:06:55.639Z,62.46
2018-03-30T03:09:23.101Z,62.33
2018-03-30T03:11:50.533Z,62.63
2018-03-30T03:14:18.011Z,62.11
2018-03-30T03:16:45.448Z,62.67
2018-03-30T03:19:13.557Z,62.64
2018-03-30T03:21:41.014Z,62.10
2018-03-30T03:24:08.448Z,61.95
2018-03-30T03:26:35.940Z,61.54
2018-03-30T03:29:03.415Z,62.28
2018-03-30T03:31:30.864Z,63.92
2018-03-30T03:33:58.299Z,62.43
2018-03-30T03:36:25.769Z,62.01
2018-03-30T03:38:53.206Z,62.18
2018-03-30T03:41:20.645Z,62.20
2018-03-30T03:43:48.104Z,62.45
2018-03-30T03:46:15.542Z,62.71
2018-03-30T03:48:42.993Z,62.08
2018-03-30T03:51:10.440Z,61.85
2018-03-30T03:53:37.974Z,61.49
2018-03-30T03:56:05.394Z,62.98
2018-03-30T03:58:32.859Z,62.54
2018-03-30T04:01:00.296Z,62.38
2018-03-30T04:03:27.764Z,61.86
2018-03-30T04:05:55.243Z,62.28
2018-03-30T04:08:22.688Z,62.84
2018-03-30T04:10:50.142Z,62.99
2018-03-30T04:13:17.718Z,63.09
2018-03-30T04:15:45.282Z,62.59
2018-03-30T04:18:12.766Z,62.55
2018-03-30T04:20:40.261Z,62.64
2018-03-30T04:23:07.696Z,63.20
2018-03-30T04:25:35.197Z,63.34
2018-03-30T04:28:02.732Z,63.15
2018-03-30T04:30:30.198Z,62.92
2018-03-30T04:32:57.676Z,62.95
2018-03-30T04:35:25.112Z,63.50
2018-03-30T04:37:52.597Z,63.07
2018-03-30T04:40:20.039Z,63.26
2018-03-30T04:42:47.556Z,62.79
2018-03-30T04:45:15.241Z,62.65
2018-03-30T04:47:43.006Z,62.53
2018-03-30T04:50:10.462Z,62.47
2018-03-30T04:52:37.896Z,62.43
2018-03-30T04:55:05.364Z,62.55
2018-03-30T04:57:32.794Z,62.28
2018-03-30T05:00:00.279Z,62.97
2018-03-30T05:02:27.736Z,64.17
2018-03-30T05:04:55.331Z,64.08
2018-03-30T05:07:22.990Z,65.65
2018-03-30T05:09:50.530Z,64.28
2018-03-30T05:12:18.116Z,64.62
2018-03-30T05:14:45.647Z,63.63
2018-03-30T05:17:13.111Z,63.38
2018-03-30T05:19:40.605Z,63.42
2018-03-30T05:22:08.292Z,63.24
2018-03-30T05:24:35.748Z,63.36
2018-03-30T05:27:03.187Z,63.57
2018-03-30T05:29:30.663Z,63.69
2018-03-30T05:31:58.097Z,63.75
2018-03-30T05:34:26.579Z,63.68
2018-03-30T05:36:54.064Z,63.43
2018-03-30T05:39:21.578Z,63.31
2018-03-30T05:41:49.123Z,63.91
2018-03-30T05:44:16.631Z,63.21
2018-03-30T05:46:44.097Z,64.21
2018-03-30T05:49:11.553Z,63.79
2018-03-30T05:51:39.030Z,63.30
2018-03-30T05:54:06.469Z,62.47
2018-03-30T05:56:33.930Z,62.05
2018-03-30T05:59:01.435Z,61.92
2018-03-30T06:01:29.009Z,62.30
2018-03-30T06:03:56.535Z,60.86
2018-03-30T06:06:24.118Z,60.48
2018-03-30T06:08:51.703Z,60.98
2018-03-30T06:11:19.393Z,60.65
2018-03-30T06:13:46.844Z,55.36
2018-03-30T06:16:14.315Z,57.08
2018-03-30T06:18:41.800Z,55.33
2018-03-30T06:21:09.232Z,53.19
2018-03-30T06:23:36.695Z,50.09
2018-03-30T06:26:04.129Z,46.12
2018-03-30T06:28:31.615Z,45.50
2018-03-30T06:30:59.042Z,44.41
2018-03-30T06:33:26.514Z,43.41
2018-03-30T06:35:53.957Z,40.23
2018-03-30T06:38:22.897Z,36.89
2018-03-30T06:40:50.414Z,35.39
2018-03-30T06:43:17.935Z,34.69
2018-03-30T06:45:45.488Z,36.73
2018-03-30T06:48:12.929Z,34.17
2018-03-30T06:50:40.399Z,32.67
2018-03-30T06:53:08.103Z,30.00
2018-03-30T06:55:35.757Z,28.55
2018-03-30T06:58:03.193Z,27.34
2018-03-30T07:00:30.663Z,27.26
2018-03-30T07:02:58.101Z,25.82
2018-03-30T07:05:25.901Z,26.63
2018-03-30T07:07:53.374Z,25.80
2018-03-30T07:10:20.845Z,26.55
2018-03-30T07:12:48.424Z,26.72
2018-03-30T07:15:15.875Z,26.33
2018-03-30T07:17:43.366Z,25.60
2018-03-30T07:20:10.781Z,24.65
2018-03-30T07:22:38.254Z,24.74
2018-03-30T07:25:05.713Z,24.58
2018-03-30T07:27:33.804Z,24.17
2018-03-30T07:30:01.291Z,25.37
2018-03-30T07:32:28.786Z,25.26
2018-03-30T07:34:56.363Z,25.52
2018-03-30T07:37:24.101Z,23.98
2018-03-30T07:39:51.553Z,23.56
2018-03-30T07:42:19.138Z,23.93
2018-03-30T07:44:46.609Z,24.62
2018-03-30T07:47:14.091Z,23.73
2018-03-30T07:49:41.583Z,23.59
2018-03-30T07:52:09.501Z,23.65
2018-03-30T07:54:36.962Z,24.65
2018-03-30T07:57:04.390Z,23.34
2018-03-30T07:59:31.843Z,24.56
2018-03-30T08:01:59.278Z,24.67
2018-03-30T08:04:26.743Z,23.95
2018-03-30T08:06:54.242Z,24.55
2018-03-30T08:09:21.708Z,23.42
2018-03-30T08:11:49.241Z,23.27
2018-03-30T08:14:16.687Z,24.52
2018-03-30T08:16:44.156Z,25.39
2018-03-30T08:19:11.663Z,26.41
2018-03-30T08:21:39.130Z,26.48
2018-03-30T08:24:06.560Z,27.52
2018-03-30T08:26:34.088Z,27.42
2018-03-30T08:29:02.485Z,26.77
2018-03-30T08:31:29.976Z,26.61
2018-03-30T08:33:57.581Z,25.85
2018-03-30T08:36:25.228Z,23.92
2018-03-30T08:38:53.178Z,25.25
2018-03-30T08:41:20.621Z,22.95
2018-03-30T08:43:48.497Z,23.26
2018-03-30T08:46:15.925Z,24.83
2018-03-30T08:48:43.393Z,25.80
2018-03-30T08:51:10.840Z,25.29
2018-03-30T08:53:38.309Z,28.50
2018-03-30T08:56:05.761Z,29.70
2018-03-30T08:58:33.183Z,29.93
2018-03-30T09:01:00.675Z,30.33
2018-03-30T09:03:28.643Z,30.92
2018-03-30T09:05:56.181Z,30.65
2018-03-30T09:08:23.616Z,32.08
2018-03-30T09:10:51.541Z,33.51
2018-03-30T09:13:18.992Z,32.73
2018-03-30T09:15:46.467Z,32.79
2018-03-30T09:18:13.925Z,33.32
2018-03-30T09:20:41.364Z,33.75
2018-03-30T09:23:08.827Z,34.71
2018-03-30T09:25:36.248Z,35.13
2018-03-30T09:28:03.709Z,34.96
2018-03-30T09:30:31.301Z,33.58
2018-03-30T09:32:58.892Z,33.87
2018-03-30T09:35:26.360Z,34.99
2018-03-30T09:37:53.781Z,35.12
2018-03-30T09:40:21.414Z,33.96
2018-03-30T09:42:48.919Z,34.23
2018-03-30T09:45:16.365Z,32.14
2018-03-30T09:47:43.782Z,31.23
2018-03-30T09:50:11.242Z,33.38
2018-03-30T09:52:38.660Z,33.41
2018-03-30T09:55:06.110Z,32.10
2018-03-30T09:57:33.535Z,32.95
2018-03-30T10:00:02.339Z,33.04
2018-03-30T10:02:31.050Z,33.21
2018-03-30T10:05:01.463Z,33.97
2018-03-30T10:07:28.935Z,33.51
2018-03-30T10:09:56.617Z,34.10
2018-03-30T10:12:24.162Z,33.69
2018-03-30T10:14:51.821Z,33.94
2018-03-30T10:17:19.308Z,32.82
2018-03-30T10:19:46.727Z,31.41
2018-03-30T10:22:14.212Z,29.76
2018-03-30T10:24:41.623Z,29.62
2018-03-30T10:27:09.089Z,29.21
2018-03-30T10:29:36.526Z,27.93
2018-03-30T10:32:04.007Z,28.72
2018-03-30T10:34:31.590Z,29.15
2018-03-30T10:36:59.037Z,30.11
2018-03-30T10:39:26.482Z,29.22
2018-03-30T10:41:53.943Z,28.45
2018-03-30T10:44:21.398Z,28.74
2018-03-30T10:46:48.860Z,29.00
2018-03-30T10:49:16.309Z,28.66
2018-03-30T10:51:43.781Z,27.82
2018-03-30T10:54:11.258Z,26.80
2018-03-30T10:56:38.855Z,27.52
2018-03-30T10:59:06.564Z,28.20
2018-03-30T11:01:34.044Z,27.98
2018-03-30T11:04:01.849Z,27.34
2018-03-30T11:06:29.923Z,27.14
2018-03-30T11:08:58.131Z,27.70
2018-03-30T11:11:26.004Z,27.61
2018-03-30T11:13:54.175Z,28.14
2018-03-30T11:16:21.603Z,27.27
2018-03-30T11:18:49.150Z,27.43
2018-03-30T11:21:16.663Z,28.82
2018-03-30T11:23:44.419Z,27.63
2018-03-30T11:26:11.950Z,27.30
2018-03-30T11:28:39.455Z,27.71
2018-03-30T11:31:07.004Z,27.57
2018-03-30T11:33:34.477Z,26.88
2018-03-30T11:36:02.044Z,27.04
2018-03-30T11:38:29.476Z,28.43
2018-03-30T11:40:56.933Z,29.01
2018-03-30T11:43:24.393Z,28.68
2018-03-30T11:45:51.838Z,29.14
2018-03-30T11:48:19.346Z,28.97
2018-03-30T11:50:46.849Z,28.47
2018-03-30T11:53:14.290Z,28.58
2018-03-30T11:55:42.115Z,29.65
2018-03-30T11:58:10.148Z,28.58
2018-03-30T12:00:38.667Z,29.29
2018-03-30T12:03:06.428Z,28.90
2018-03-30T12:05:34.415Z,29.25
2018-03-30T12:08:02.252Z,30.16
2018-03-30T12:10:29.750Z,29.57
2018-03-30T12:12:57.624Z,29.72
2018-03-30T12:15:25.442Z,29.13
2018-03-30T12:17:53.418Z,29.63
2018-03-30T12:20:21.356Z,30.44
2018-03-30T12:22:49.344Z,29.57
2018-03-30T12:25:16.827Z,29.01
2018-03-30T12:27:44.291Z,29.31
2018-03-30T12:30:11.730Z,30.68
2018-03-30T12:32:39.190Z,29.76
2018-03-30T12:35:06.723Z,29.85
2018-03-30T12:37:34.185Z,29.87
2018-03-30T12:40:01.671Z,29.62
2018-03-30T12:42:29.272Z,30.59
2018-03-30T12:44:56.857Z,30.75
2018-03-30T12:47:24.277Z,30.47
2018-03-30T12:49:51.926Z,30.04
2018-03-30T12:52:20.081Z,29.78
2018-03-30T12:54:47.541Z,29.78
2018-03-30T12:57:15.329Z,30.44
2018-03-30T12:59:42.787Z,30.98
2018-03-30T13:02:10.217Z,30.40
2018-03-30T13:04:37.734Z,30.15
2018-03-30T13:07:05.219Z,31.60
2018-03-30T13:09:32.944Z,32.43
2018-03-30T13:12:00.401Z,33.54
2018-03-30T13:14:27.904Z,33.50
2018-03-30T13:16:55.539Z,33.11
2018-03-30T13:19:23.094Z,33.92
2018-03-30T13:21:50.571Z,33.27
2018-03-30T13:24:17.999Z,33.42
2018-03-30T13:26:45.457Z,34.29
2018-03-30T13:29:12.877Z,34.77
2018-03-30T13:31:40.378Z,33.50
2018-03-30T13:34:07.820Z,33.65
2018-03-30T13:36:35.729Z,34.15
2018-03-30T13:39:03.147Z,34.57
2018-03-30T13:41:30.612Z,35.95
2018-03-30T13:43:58.063Z,34.96
2018-03-30T13:46:25.489Z,34.08
2018-03-30T13:48:53.007Z,35.10
2018-03-30T13:51:40.113Z,35.14
2018-03-30T13:54:09.273Z,34.49
2018-03-30T13:56:51.358Z,34.29
2018-03-30T13:59:23.576Z,34.29
2018-03-30T14:05:22.160Z,34.38
2018-03-30T14:07:52.562Z,33.94
2018-03-30T14:10:26.094Z,33.11
2018-03-30T14:12:53.603Z,32.85
2018-03-30T14:15:23.892Z,32.58
2018-03-30T14:17:55.982Z,31.67
2018-03-30T14:20:24.389Z,31.64
2018-03-30T14:22:54.481Z,32.18
2018-03-30T14:25:23.723Z,32.23
2018-03-30T14:28:02.247Z,32.68
2018-03-30T14:30:32.089Z,32.53
2018-03-30T14:33:05.686Z,31.76
2018-03-30T14:35:36.762Z,31.43
2018-03-30T14:38:16.871Z,32.22
2018-03-30T14:40:48.096Z,32.51
2018-03-30T14:46:17.927Z,33.99
2018-03-30T14:48:47.856Z,34.62
2018-03-30T14:51:16.982Z,34.79
2018-03-30T14:53:55.397Z,34.38
2018-03-30T14:56:34.622Z,34.12
2018-03-30T14:59:15.298Z,33.59
2018-03-30T15:01:44.607Z,33.52
2018-03-30T15:04:24.716Z,33.40
2018-03-30T15:06:59.521Z,33.67
2018-03-30T15:12:45.622Z,33.88
2018-03-30T15:18:15.809Z,34.88
2018-03-30T15:20:50.385Z,35.16
2018-03-30T15:23:18.798Z,35.64
2018-03-30T15:25:54.826Z,36.41
2018-03-30T15:28:25.156Z,35.97
2018-03-30T15:33:55.755Z,36.22
2018-03-30T15:36:38.059Z,36.80
2018-03-30T15:39:08.244Z,36.15
2018-03-30T15:41:40.419Z,36.67
2018-03-30T15:44:07.940Z,36.75
2018-03-30T15:46:36.232Z,36.73
2018-03-30T15:49:03.686Z,35.76
2018-03-30T15:51:31.192Z,36.14
2018-03-30T15:53:58.088Z,36.71
2018-03-30T15:56:26.410Z,36.13
2018-03-30T15:58:54.000Z,36.44
2018-03-30T16:01:21.576Z,36.84
2018-03-30T16:03:49.099Z,37.15
2018-03-30T16:06:17.481Z,37.13
2018-03-30T16:08:45.265Z,37.03
2018-03-30T16:11:18.190Z,36.64
2018-03-30T16:13:45.669Z,37.15
2018-03-30T16:16:13.180Z,36.94
2018-03-30T16:18:52.413Z,36.84
2018-03-30T16:21:19.375Z,36.71
2018-03-30T16:23:46.360Z,36.92
2018-03-30T16:26:13.285Z,37.18
2018-03-30T16:28:40.181Z,38.20
2018-03-30T16:31:07.206Z,38.45
2018-03-30T16:33:34.149Z,38.20
2018-03-30T16:36:01.081Z,38.56
2018-03-30T16:38:27.998Z,38.51
2018-03-30T16:40:54.984Z,39.26
2018-03-30T16:43:22.524Z,39.04
2018-03-30T16:45:50.081Z,38.71
2018-03-30T16:48:16.998Z,38.82
2018-03-30T16:50:44.621Z,39.00
2018-03-30T16:53:11.788Z,39.12
2018-03-30T16:55:39.084Z,38.91
2018-03-30T16:58:08.376Z,38.82
2018-03-30T17:00:35.673Z,38.62
2018-03-30T17:03:03.043Z,38.24
2018-03-30T17:05:29.953Z,37.77
2018-03-30T17:07:57.172Z,37.41
2018-03-30T17:10:24.086Z,37.16
2018-03-30T17:12:51.048Z,37.00
2018-03-30T17:15:17.944Z,37.26
2018-03-30T17:17:44.882Z,39.52
2018-03-30T17:20:11.771Z,45.95
2018-03-30T17:22:38.771Z,51.94
2018-03-30T17:25:05.688Z,58.35
2018-03-30T17:27:32.653Z,60.35
2018-03-30T17:29:59.772Z,61.29
2018-03-30T17:32:26.676Z,63.53
2018-03-30T17:34:53.735Z,62.38
2018-03-30T17:37:20.775Z,61.71
2018-03-30T17:39:47.740Z,62.74
2018-03-30T17:42:14.659Z,64.83
2018-03-30T17:44:42.303Z,65.64
2018-03-30T17:47:09.219Z,68.75
2018-03-30T17:49:36.202Z,69.21
2018-03-30T17:52:03.233Z,70.99
2018-03-30T17:54:30.188Z,71.28
2018-03-30T17:56:57.124Z,71.11
2018-03-30T17:59:24.330Z,69.23
2018-03-30T18:01:51.239Z,71.19
2018-03-30T18:04:18.224Z,70.83
2018-03-30T18:06:45.132Z,68.17
2018-03-30T18:09:12.130Z,68.54
2018-03-30T18:11:39.903Z,68.88
2018-03-30T18:14:06.818Z,67.81
2018-03-30T18:16:34.389Z,65.18
2018-03-30T18:19:01.296Z,65.48
2018-03-30T18:21:29.138Z,67.65
2018-03-30T18:23:56.037Z,67.86
2018-03-30T18:26:22.962Z,67.16
2018-03-30T18:28:49.879Z,67.40
2018-03-30T18:31:16.841Z,68.73
2018-03-30T18:33:43.801Z,65.92
2018-03-30T18:36:10.775Z,65.48
2018-03-30T18:38:38.108Z,65.74
2018-03-30T18:41:05.069Z,65.00
2018-03-30T18:43:32.007Z,64.64
2018-03-30T18:45:59.133Z,64.55
2018-03-30T18:48:26.901Z,65.53
2018-03-30T18:50:53.810Z,65.69
2018-03-30T18:53:23.740Z,67.75
2018-03-30T18:55:50.747Z,70.27
2018-03-30T18:58:18.654Z,68.45
2018-03-30T19:00:46.329Z,68.40
2018-03-30T19:05:49.683Z,69.86
2018-03-30T19:08:16.860Z,69.04
2018-03-30T19:10:44.133Z,68.29
2018-03-30T19:15:50.826Z,71.40
2018-03-30T19:18:18.421Z,73.33
2018-03-30T19:23:16.779Z,72.54
2018-03-30T19:25:43.705Z,71.55
2018-03-30T19:28:11.557Z,71.15
2018-03-30T19:30:38.697Z,69.84
2018-03-30T19:33:06.180Z,69.61
2018-03-30T19:35:34.987Z,69.44
2018-03-30T19:38:05.422Z,69.24
2018-03-30T19:40:33.326Z,69.74
2018-03-30T19:43:00.793Z,70.13
2018-03-30T19:45:29.277Z,72.24
2018-03-30T19:47:57.198Z,70.91
2018-03-30T19:50:28.669Z,70.89
2018-03-30T19:55:31.843Z,71.07
2018-03-30T19:58:00.635Z,70.05
2018-03-30T20:00:29.404Z,70.39
2018-03-30T20:02:58.006Z,71.19
2018-03-30T20:05:25.008Z,72.78
2018-03-30T20:07:54.350Z,71.08
2018-03-30T20:10:23.738Z,70.68
2018-03-30T20:12:50.787Z,70.47
2018-03-30T20:15:20.928Z,70.90
2018-03-30T20:17:48.593Z,71.11
2018-03-30T20:20:17.974Z,70.15
2018-03-30T20:22:47.195Z,69.62
2018-03-30T20:25:15.992Z,70.62
2018-03-30T20:27:43.182Z,70.40
2018-03-30T20:30:11.535Z,69.36
2018-03-30T20:32:42.437Z,69.95
2018-03-30T20:35:09.761Z,69.89
2018-03-30T20:37:38.038Z,68.94
2018-03-30T20:40:05.022Z,69.81
2018-03-30T20:42:31.941Z,71.19
2018-03-30T20:44:58.909Z,70.55
2018-03-30T20:47:25.835Z,69.24
2018-03-30T20:49:52.736Z,69.67
2018-03-30T20:52:23.779Z,69.48
2018-03-30T20:54:50.916Z,71.91
2018-03-30T20:57:18.252Z,70.66
2018-03-30T20:59:45.981Z,72.23
2018-03-30T21:02:12.941Z,73.31
2018-03-30T21:04:39.951Z,71.70
2018-03-30T21:07:07.256Z,71.45
2018-03-30T21:09:34.302Z,71.44
2018-03-30T21:12:01.203Z,71.32
2018-03-30T21:14:28.152Z,73.03
2018-03-30T21:16:55.858Z,72.12
2018-03-30T21:19:22.794Z,70.62
2018-03-30T21:21:50.864Z,71.62
2018-03-30T21:24:17.802Z,70.88
2018-03-30T21:26:45.650Z,71.38
2018-03-30T21:29:12.576Z,70.82
2018-03-30T21:31:39.515Z,70.48
2018-03-30T21:34:06.435Z,71.37
2018-03-30T21:36:33.342Z,71.29
2018-03-30T21:39:00.286Z,71.32
2018-03-30T21:41:27.245Z,71.13
2018-03-30T21:43:54.130Z,71.58
2018-03-30T21:46:21.439Z,71.47
2018-03-30T21:48:48.375Z,71.51
2018-03-30T21:51:15.310Z,71.52
2018-03-30T21:53:42.388Z,72.46
2018-03-30T21:56:09.847Z,71.66
2018-03-30T21:58:36.789Z,70.76
2018-03-30T22:01:03.721Z,70.80
2018-03-30T22:03:30.639Z,71.69
2018-03-30T22:05:57.573Z,70.97
2018-03-30T22:08:24.466Z,69.81
2018-03-30T22:10:51.397Z,69.84
2018-03-30T22:13:18.289Z,69.88
2018-03-30T22:15:46.038Z,69.65
2018-03-30T22:18:12.946Z,70.21
2018-03-30T22:20:39.846Z,69.34
2018-03-30T22:23:06.781Z,69.35
2018-03-30T22:25:33.839Z,69.40
2018-03-30T22:28:00.871Z,69.53
2018-03-30T22:30:28.457Z,69.66
2018-03-30T22:32:56.170Z,68.18
2018-03-30T22:35:23.119Z,69.06
2018-03-30T22:37:50.027Z,68.90
2018-03-30T22:40:16.927Z,69.10
2018-03-30T22:42:43.859Z,68.74
2018-03-30T22:45:10.820Z,68.46
2018-03-30T22:47:37.764Z,68.11
2018-03-30T22:50:04.794Z,67.46
2018-03-30T22:52:32.724Z,68.24
2018-03-30T22:54:59.691Z,68.37
2018-03-30T22:57:26.662Z,68.25
2018-03-30T22:59:53.835Z,67.90
2018-03-30T23:02:20.748Z,68.23
2018-03-30T23:04:47.680Z,67.53
2018-03-30T23:07:15.063Z,66.33
2018-03-30T23:09:42.008Z,65.96
2018-03-30T23:12:08.940Z,66.32
2018-03-30T23:14:35.950Z,67.07
2018-03-30T23:17:02.894Z,67.08
2018-03-30T23:19:29.832Z,66.43
2018-03-30T23:21:57.410Z,66.82
2018-03-30T23:24:24.418Z,66.72
2018-03-30T23:26:51.408Z,66.44
2018-03-30T23:29:18.310Z,65.65
2018-03-30T23:31:45.622Z,66.10
2018-03-30T23:34:12.521Z,66.61
2018-03-30T23:36:39.560Z,65.76
2018-03-30T23:39:09.836Z,66.13
2018-03-30T23:41:36.779Z,66.45
2018-03-30T23:44:03.741Z,67.31
2018-03-30T23:46:31.789Z,67.07
2018-03-30T23:48:58.701Z,67.13
2018-03-30T23:51:25.691Z,67.33
2018-03-30T23:53:52.608Z,67.13
2018-03-30T23:56:20.212Z,66.93
2018-03-30T23:58:47.146Z,67.23
